createdAt,value
2023-04-29T00:01:10.166Z,94.53
2023-04-29T00:03:27.600Z,95.60
2023-04-29T00:05:45.163Z,95.08
2023-04-29T00:08:02.539Z,95.17
2023-04-29T00:10:19.713Z,94.52
2023-04-29T00:12:36.784Z,95.09
2023-04-29T00:14:53.711Z,95.40
2023-04-29T00:17:10.763Z,95.79
2023-04-29T00:19:27.927Z,95.37
2023-04-29T00:21:45.175Z,95.19
2023-04-29T00:24:02.389Z,94.91
2023-04-29T00:26:19.713Z,94.99
2023-04-29T00:28:37.037Z,94.83
2023-04-29T00:30:54.142Z,95.36
2023-04-29T00:33:12.258Z,94.76
2023-04-29T00:35:29.507Z,94.41
2023-04-29T00:37:46.566Z,94.61
2023-04-29T00:40:03.466Z,94.08
2023-04-29T00:42:20.685Z,95.13
2023-04-29T00:44:37.680Z,95.21
2023-04-29T00:46:54.756Z,94.83
2023-04-29T00:49:13.048Z,93.92
2023-04-29T00:51:29.977Z,95.27
2023-04-29T00:53:49.592Z,93.63
2023-04-29T00:56:07.093Z,95.13
2023-04-29T00:58:24.981Z,94.75
2023-04-29T01:00:41.919Z,95.10
2023-04-29T01:02:58.943Z,94.56
2023-04-29T01:05:16.237Z,95.04
2023-04-29T01:07:33.170Z,94.55
2023-04-29T01:09:50.709Z,95.32
2023-04-29T01:12:09.284Z,95.53
2023-04-29T01:14:26.382Z,94.56
2023-04-29T01:16:43.634Z,94.32
2023-04-29T01:19:00.910Z,94.23
2023-04-29T01:21:17.968Z,94.44
2023-04-29T01:23:34.939Z,94.50
2023-04-29T01:25:51.989Z,95.09
2023-04-29T01:28:10.064Z,95.02
2023-04-29T01:30:27.278Z,95.19
2023-04-29T01:32:44.703Z,94.81
2023-04-29T01:35:01.758Z,95.03
2023-04-29T01:37:18.744Z,94.71
2023-04-29T01:39:36.029Z,96.19
2023-04-29T01:41:53.418Z,95.43
2023-04-29T01:44:10.491Z,95.39
2023-04-29T01:46:27.572Z,95.88
2023-04-29T01:48:44.875Z,97.04
2023-04-29T01:51:02.196Z,95.82
2023-04-29T01:53:20.274Z,95.94
2023-04-29T01:55:37.218Z,96.49
2023-04-29T01:57:54.149Z,97.35
2023-04-29T02:00:11.252Z,96.04
2023-04-29T02:02:29.632Z,96.17
2023-04-29T02:04:47.033Z,96.48
2023-04-29T02:07:04.387Z,96.84
2023-04-29T02:09:22.503Z,97.04
2023-04-29T02:11:39.783Z,97.35
2023-04-29T02:13:57.098Z,96.91
2023-04-29T02:16:14.069Z,97.73
2023-04-29T02:18:31.246Z,96.91
2023-04-29T02:20:49.056Z,96.53
2023-04-29T02:23:06.010Z,97.11
2023-04-29T02:25:23.122Z,96.81
2023-04-29T02:27:40.087Z,97.78
2023-04-29T02:29:57.214Z,96.71
2023-04-29T02:32:14.058Z,96.89
2023-04-29T02:34:31.132Z,97.16
2023-04-29T02:36:48.413Z,98.06
2023-04-29T02:39:06.323Z,97.51
2023-04-29T02:41:24.588Z,98.10
2023-04-29T02:43:41.589Z,97.75
2023-04-29T02:45:58.744Z,97.03
2023-04-29T02:48:15.666Z,97.51
2023-04-29T02:50:32.984Z,98.59
2023-04-29T02:52:50.206Z,97.53
2023-04-29T02:55:08.521Z,97.21
2023-04-29T02:57:25.598Z,98.40
2023-04-29T02:59:42.567Z,97.28
2023-04-29T03:01:59.604Z,98.23
2023-04-29T03:04:16.840Z,97.08
2023-04-29T03:06:34.266Z,98.16
2023-04-29T03:08:51.234Z,98.71
2023-04-29T03:11:08.250Z,98.20
2023-04-29T03:13:25.591Z,98.50
2023-04-29T03:15:42.830Z,97.63
2023-04-29T03:17:59.922Z,97.87
2023-04-29T03:20:16.978Z,98.34
2023-04-29T03:22:35.041Z,98.23
2023-04-29T03:24:52.081Z,98.90
2023-04-29T03:27:09.352Z,98.92
2023-04-29T03:29:26.417Z,98.66
2023-04-29T03:31:43.452Z,98.43
2023-04-29T03:34:00.740Z,98.50
2023-04-29T03:36:17.757Z,99.28
2023-04-29T03:38:34.791Z,98.18
2023-04-29T03:40:52.804Z,98.30
2023-04-29T03:43:10.847Z,98.73
2023-04-29T03:45:27.906Z,99.42
2023-04-29T03:47:44.971Z,99.19
2023-04-29T03:50:02.323Z,99.12
2023-04-29T03:52:19.363Z,99.88
2023-04-29T03:54:36.403Z,99.57
2023-04-29T03:56:53.724Z,99.43
2023-04-29T03:59:12.580Z,99.52
2023-04-29T04:01:29.898Z,99.97
2023-04-29T04:03:47.015Z,100.00
2023-04-29T04:06:04.184Z,99.15
2023-04-29T04:08:22.133Z,99.18
2023-04-29T04:10:39.380Z,99.49
2023-04-29T04:12:57.398Z,99.71
2023-04-29T04:15:14.352Z,99.16
2023-04-29T04:17:31.739Z,99.48
2023-04-29T04:19:49.935Z,99.95
2023-04-29T04:22:07.112Z,99.09
2023-04-29T04:24:24.150Z,99.76
2023-04-29T04:26:41.565Z,98.80
2023-04-29T04:28:59.181Z,99.37
2023-04-29T04:31:16.249Z,99.55
2023-04-29T04:33:33.355Z,99.51
2023-04-29T04:35:50.396Z,99.56
2023-04-29T04:38:07.701Z,99.45
2023-04-29T04:40:24.730Z,99.71
2023-04-29T04:42:41.738Z,99.52
2023-04-29T04:44:59.085Z,100.00
2023-04-29T04:47:16.053Z,100.00
2023-04-29T04:49:33.120Z,100.00
2023-04-29T04:51:51.435Z,99.97
2023-04-29T04:54:09.545Z,99.59
2023-04-29T04:56:27.152Z,100.00
2023-04-29T04:58:44.192Z,100.00
2023-04-29T05:01:01.206Z,100.00
2023-04-29T05:03:18.434Z,100.00
2023-04-29T05:05:35.673Z,100.00
2023-04-29T05:07:52.951Z,100.00
2023-04-29T05:10:09.889Z,100.00
2023-04-29T05:12:27.137Z,100.00
2023-04-29T05:14:44.496Z,100.00
2023-04-29T05:17:01.645Z,100.00
2023-04-29T05:19:19.099Z,100.00
2023-04-29T05:21:36.214Z,100.00
2023-04-29T05:23:54.522Z,100.00
2023-04-29T05:26:11.584Z,100.00
2023-04-29T05:28:28.874Z,100.00
2023-04-29T05:30:46.844Z,100.00
2023-04-29T05:33:03.959Z,100.00
2023-04-29T05:35:22.277Z,100.00
2023-04-29T05:37:39.942Z,100.00
2023-04-29T05:39:56.907Z,100.00
2023-04-29T05:42:14.233Z,100.00
2023-04-29T05:44:31.544Z,100.00
2023-04-29T05:46:48.547Z,99.90
2023-04-29T05:49:06.896Z,97.49
2023-04-29T05:51:24.000Z,96.43
2023-04-29T05:53:41.070Z,95.77
2023-04-29T05:55:58.370Z,95.45
2023-04-29T05:58:15.474Z,94.13
2023-04-29T06:00:32.572Z,92.97
2023-04-29T06:02:58.495Z,92.32
2023-04-29T06:05:16.655Z,89.77
2023-04-29T06:07:34.245Z,87.91
2023-04-29T06:09:51.775Z,86.38
2023-04-29T06:12:09.329Z,86.37
2023-04-29T06:14:26.409Z,84.71
2023-04-29T06:16:44.547Z,84.16
2023-04-29T06:19:01.601Z,83.36
2023-04-29T06:21:18.607Z,84.47
2023-04-29T06:23:35.721Z,84.68
2023-04-29T06:25:53.426Z,83.95
2023-04-29T06:28:11.528Z,84.51
2023-04-29T06:30:28.509Z,82.80
2023-04-29T06:32:46.063Z,83.08
2023-04-29T06:35:03.501Z,83.44
2023-04-29T06:37:20.745Z,84.26
2023-04-29T06:39:38.782Z,82.84
2023-04-29T06:41:56.124Z,82.73
2023-04-29T06:44:14.523Z,81.84
2023-04-29T06:46:31.669Z,82.02
2023-04-29T06:48:49.595Z,82.23
2023-04-29T06:51:06.885Z,82.09
2023-04-29T06:53:23.916Z,81.20
2023-04-29T06:55:40.985Z,83.79
2023-04-29T06:57:59.218Z,83.29
2023-04-29T07:00:16.215Z,83.06
2023-04-29T07:02:33.670Z,82.38
2023-04-29T07:04:50.909Z,81.85
2023-04-29T07:07:09.060Z,82.11
2023-04-29T07:09:26.410Z,81.63
2023-04-29T07:11:43.509Z,82.92
2023-04-29T07:14:00.452Z,83.66
2023-04-29T07:16:18.832Z,83.61
2023-04-29T07:18:36.193Z,83.43
2023-04-29T07:20:54.267Z,81.87
2023-04-29T07:23:12.297Z,82.51
2023-04-29T07:25:29.249Z,82.49
2023-04-29T07:27:47.240Z,80.78
2023-04-29T07:30:04.268Z,79.89
2023-04-29T07:32:21.522Z,80.79
2023-04-29T07:34:38.548Z,80.07
2023-04-29T07:36:55.427Z,80.94
2023-04-29T07:39:12.812Z,80.72
2023-04-29T07:41:30.134Z,80.39
2023-04-29T07:43:48.333Z,79.91
2023-04-29T07:46:05.319Z,80.40
2023-04-29T07:48:23.388Z,80.50
2023-04-29T07:50:40.416Z,80.79
2023-04-29T07:52:57.452Z,78.96
2023-04-29T07:55:14.353Z,79.42
2023-04-29T07:57:31.620Z,77.77
2023-04-29T07:59:48.811Z,78.65
2023-04-29T08:02:05.824Z,78.19
2023-04-29T08:04:23.217Z,77.72
2023-04-29T08:06:40.646Z,77.75
2023-04-29T08:08:58.624Z,76.54
2023-04-29T08:11:15.499Z,77.09
2023-04-29T08:13:32.430Z,77.08
2023-04-29T08:15:49.512Z,75.46
2023-04-29T08:18:06.825Z,74.70
2023-04-29T08:20:23.855Z,76.13
2023-04-29T08:22:40.891Z,76.53
2023-04-29T08:24:57.960Z,76.36
2023-04-29T08:27:16.289Z,76.13
2023-04-29T08:29:33.609Z,74.68
2023-04-29T08:31:51.876Z,75.68
2023-04-29T08:34:09.265Z,74.81
2023-04-29T08:36:27.544Z,74.55
2023-04-29T08:38:44.803Z,74.84
2023-04-29T08:41:01.788Z,73.62
2023-04-29T08:43:19.148Z,73.23
2023-04-29T08:45:36.464Z,73.62
2023-04-29T08:47:53.793Z,73.21
2023-04-29T08:50:10.808Z,73.70
2023-04-29T08:52:28.051Z,74.84
2023-04-29T08:54:45.123Z,75.37
2023-04-29T08:57:02.043Z,73.51
2023-04-29T08:59:19.397Z,74.16
2023-04-29T09:01:36.494Z,75.38
2023-04-29T09:03:53.689Z,77.22
2023-04-29T09:06:10.773Z,75.44
2023-04-29T09:08:27.832Z,74.62
2023-04-29T09:10:44.784Z,76.96
2023-04-29T09:13:02.062Z,77.00
2023-04-29T09:15:19.368Z,76.36
2023-04-29T09:17:36.690Z,74.58
2023-04-29T09:19:53.715Z,73.98
2023-04-29T09:22:10.735Z,73.12
2023-04-29T09:24:28.023Z,74.41
2023-04-29T09:26:44.919Z,73.65
2023-04-29T09:29:01.848Z,74.47
2023-04-29T09:31:18.910Z,72.77
2023-04-29T09:33:35.898Z,73.91
2023-04-29T09:35:53.770Z,74.33
2023-04-29T09:38:10.938Z,73.71
2023-04-29T09:40:28.228Z,74.15
2023-04-29T09:42:45.229Z,73.64
2023-04-29T09:45:02.264Z,73.42
2023-04-29T10:00:31.587Z,74.82
2023-04-29T10:02:49.309Z,75.87
2023-04-29T10:05:07.131Z,75.71
2023-04-29T10:07:24.145Z,73.92
2023-04-29T10:09:41.499Z,75.09
2023-04-29T10:11:59.779Z,75.43
2023-04-29T10:14:16.710Z,75.07
2023-04-29T10:16:33.851Z,74.40
2023-04-29T10:18:52.261Z,76.48
2023-04-29T10:21:09.618Z,75.00
2023-04-29T10:23:26.956Z,76.12
2023-04-29T10:25:44.228Z,76.86
2023-04-29T10:28:01.518Z,76.34
2023-04-29T10:30:18.595Z,76.11
2023-04-29T10:32:49.852Z,78.10
2023-04-29T10:35:09.024Z,77.45
2023-04-29T10:37:25.977Z,75.63
2023-04-29T10:39:42.867Z,76.20
2023-04-29T10:42:00.165Z,77.00
2023-04-29T10:44:17.487Z,77.57
2023-04-29T10:46:34.849Z,77.84
2023-04-29T10:48:51.752Z,76.68
2023-04-29T10:51:09.108Z,77.68
2023-04-29T10:53:26.022Z,77.02
2023-04-29T10:55:43.358Z,78.14
2023-04-29T10:58:00.630Z,77.43
2023-04-29T11:00:17.850Z,77.00
2023-04-29T11:02:36.216Z,76.78
2023-04-29T11:04:53.785Z,77.79
2023-04-29T11:07:11.136Z,77.85
2023-04-29T11:09:29.413Z,76.39
2023-04-29T11:14:21.480Z,75.46
2023-04-29T11:16:38.859Z,75.43
2023-04-29T11:18:55.787Z,77.26
2023-04-29T11:21:13.122Z,74.48
2023-04-29T11:23:30.347Z,74.72
2023-04-29T11:25:48.152Z,74.11
2023-04-29T11:28:05.405Z,74.37
2023-04-29T11:30:23.636Z,76.04
2023-04-29T11:32:41.070Z,74.87
2023-04-29T11:34:58.187Z,76.58
2023-04-29T11:37:15.221Z,74.10
2023-04-29T11:39:32.461Z,73.96
2023-04-29T11:41:52.442Z,73.58
2023-04-29T11:44:09.965Z,74.33
2023-04-29T11:46:27.312Z,74.91
2023-04-29T11:48:44.231Z,75.11
2023-04-29T11:51:01.447Z,74.24
2023-04-29T11:53:18.673Z,74.06
2023-04-29T11:55:36.291Z,72.31
2023-04-29T11:57:53.544Z,72.83
2023-04-29T12:00:10.699Z,73.22
2023-04-29T12:02:28.736Z,72.60
2023-04-29T12:04:47.324Z,74.00
2023-04-29T12:07:04.327Z,72.11
2023-04-29T12:09:21.531Z,72.97
2023-04-29T12:11:38.357Z,71.97
2023-04-29T12:13:56.614Z,71.72
2023-04-29T12:16:14.937Z,72.99
2023-04-29T12:18:31.976Z,73.57
2023-04-29T12:20:48.927Z,72.93
2023-04-29T12:23:06.139Z,71.05
2023-04-29T12:25:23.490Z,70.45
2023-04-29T12:30:14.989Z,70.61
2023-04-29T12:32:32.259Z,71.14
2023-04-29T12:34:49.542Z,72.05
2023-04-29T12:37:07.166Z,69.89
2023-04-29T12:39:24.472Z,70.91
2023-04-29T12:41:42.750Z,69.10
2023-04-29T12:43:59.686Z,69.73
2023-04-29T12:46:17.250Z,69.86
2023-04-29T12:48:34.249Z,68.99
2023-04-29T12:50:51.397Z,70.31
2023-04-29T12:53:08.348Z,70.41
2023-04-29T12:55:25.669Z,68.91
2023-04-29T12:57:42.890Z,68.74
2023-04-29T13:00:00.251Z,70.23
2023-04-29T13:02:17.963Z,68.38
2023-04-29T13:04:35.138Z,69.92
2023-04-29T13:06:52.714Z,70.52
2023-04-29T13:09:12.146Z,70.73
2023-04-29T13:11:34.510Z,71.81
2023-04-29T13:13:51.976Z,71.42
2023-04-29T13:16:09.295Z,71.04
2023-04-29T13:18:26.637Z,71.51
2023-04-29T13:20:44.946Z,68.88
2023-04-29T13:23:01.884Z,69.28
2023-04-29T13:25:19.129Z,71.19
2023-04-29T13:27:36.452Z,71.51
2023-04-29T13:29:53.714Z,68.77
2023-04-29T13:32:11.083Z,68.67
2023-04-29T13:34:28.412Z,69.13
2023-04-29T13:36:45.372Z,66.99
2023-04-29T13:39:02.646Z,66.45
2023-04-29T13:41:20.432Z,66.64
2023-04-29T13:43:39.898Z,66.84
2023-04-29T13:45:58.080Z,66.71
2023-04-29T13:48:26.112Z,67.48
2023-04-29T13:53:38.686Z,66.68
2023-04-29T13:56:46.340Z,67.82
2023-04-29T14:01:11.293Z,67.45
2023-04-29T14:03:25.878Z,69.55
2023-04-29T14:05:44.117Z,70.33
2023-04-29T14:08:01.065Z,70.91
2023-04-29T14:10:18.002Z,69.48
2023-04-29T14:12:36.224Z,68.45
2023-04-29T14:14:53.804Z,68.36
2023-04-29T14:17:11.278Z,67.53
2023-04-29T14:19:28.586Z,67.05
2023-04-29T14:21:45.937Z,67.07
2023-04-29T14:24:03.279Z,67.95
2023-04-29T14:28:42.326Z,66.89
2023-04-29T14:31:00.495Z,66.55
2023-04-29T14:33:17.780Z,67.02
2023-04-29T14:35:34.784Z,66.58
2023-04-29T14:37:52.450Z,66.42
2023-04-29T14:40:09.363Z,68.57
2023-04-29T14:42:26.776Z,67.79
2023-04-29T14:44:44.058Z,67.04
2023-04-29T14:47:01.929Z,66.95
2023-04-29T14:49:18.963Z,67.46
2023-04-29T14:51:36.275Z,67.37
2023-04-29T14:53:53.518Z,67.33
2023-04-29T14:56:10.818Z,67.30
2023-04-29T14:58:29.143Z,67.03
2023-04-29T15:00:46.516Z,67.16
2023-04-29T15:03:04.213Z,67.95
2023-04-29T15:05:22.539Z,67.93
2023-04-29T15:07:41.573Z,67.10
2023-04-29T15:09:58.853Z,65.84
2023-04-29T15:12:16.065Z,66.19
2023-04-29T15:14:33.648Z,67.13
2023-04-29T15:16:52.084Z,66.75
2023-04-29T15:19:09.145Z,66.79
2023-04-29T15:21:26.386Z,66.40
2023-04-29T15:23:43.446Z,69.41
2023-04-29T15:26:00.336Z,68.11
2023-04-29T15:28:18.062Z,69.41
2023-04-29T15:30:35.025Z,69.54
2023-04-29T15:32:52.548Z,68.86
2023-04-29T15:35:09.557Z,70.40
2023-04-29T15:37:27.471Z,71.41
2023-04-29T15:39:44.699Z,71.53
2023-04-29T15:42:01.997Z,71.47
2023-04-29T15:44:19.217Z,69.86
2023-04-29T15:46:36.606Z,70.50
2023-04-29T15:48:54.232Z,70.50
2023-04-29T15:51:11.578Z,72.75
2023-04-29T15:53:28.884Z,70.88
2023-04-29T15:55:47.090Z,70.94
2023-04-29T15:58:04.368Z,72.34
2023-04-29T16:00:22.669Z,73.04
2023-04-29T16:02:39.990Z,72.12
2023-04-29T16:04:56.964Z,69.36
2023-04-29T16:07:15.549Z,69.18
2023-04-29T16:09:32.830Z,68.62
2023-04-29T16:11:50.386Z,69.83
2023-04-29T16:14:07.730Z,68.43
2023-04-29T16:16:24.993Z,69.48
2023-04-29T16:18:42.284Z,69.57
2023-04-29T16:20:59.161Z,71.31
2023-04-29T16:23:16.486Z,70.07
2023-04-29T16:25:33.748Z,71.26
2023-04-29T16:27:51.623Z,71.47
2023-04-29T16:30:09.288Z,71.44
2023-04-29T16:32:26.544Z,71.86
2023-04-29T16:34:43.924Z,71.62
2023-04-29T16:37:01.857Z,71.68
2023-04-29T16:39:19.155Z,71.93
2023-04-29T16:41:36.475Z,71.84
2023-04-29T16:43:53.819Z,71.01
2023-04-29T16:46:11.056Z,72.59
2023-04-29T16:48:29.776Z,71.47
2023-04-29T16:50:48.534Z,71.54
2023-04-29T16:53:06.412Z,72.51
2023-04-29T16:55:24.767Z,72.83
2023-04-29T16:57:42.094Z,71.65
2023-04-29T16:59:59.358Z,73.75
2023-04-29T17:02:17.615Z,73.13
2023-04-29T17:04:34.960Z,72.16
2023-04-29T17:06:52.342Z,72.08
2023-04-29T17:09:09.413Z,72.70
2023-04-29T17:11:26.715Z,73.50
2023-04-29T17:13:43.985Z,74.36
2023-04-29T17:16:02.005Z,73.44
2023-04-29T17:18:19.456Z,74.32
2023-04-29T17:20:37.170Z,74.23
2023-04-29T17:22:55.373Z,72.63
2023-04-29T17:25:12.648Z,73.72
2023-04-29T17:27:29.952Z,73.06
2023-04-29T17:29:47.695Z,74.22
2023-04-29T17:32:04.948Z,72.34
2023-04-29T17:34:22.349Z,72.72
2023-04-29T17:36:40.590Z,73.55
2023-04-29T17:38:57.453Z,73.87
2023-04-29T17:41:15.727Z,73.98
2023-04-29T17:43:32.982Z,74.14
2023-04-29T17:45:49.932Z,74.75
2023-04-29T17:48:07.253Z,74.75
2023-04-29T17:50:24.694Z,76.06
2023-04-29T17:52:41.933Z,74.93
2023-04-29T17:54:59.263Z,75.17
2023-04-29T17:57:16.521Z,76.62
2023-04-29T17:59:33.765Z,76.74
2023-04-29T18:01:50.979Z,76.89
2023-04-29T18:04:08.049Z,75.96
2023-04-29T18:06:25.396Z,76.45
2023-04-29T18:08:42.717Z,77.00
2023-04-29T18:10:59.912Z,77.87
2023-04-29T18:13:16.972Z,77.87
2023-04-29T18:15:34.222Z,78.03
2023-04-29T18:17:51.552Z,77.76
2023-04-29T18:20:08.872Z,78.40
2023-04-29T18:22:26.188Z,77.55
2023-04-29T18:24:43.436Z,77.01
2023-04-29T18:27:01.706Z,78.29
2023-04-29T18:29:19.046Z,79.08
2023-04-29T18:31:36.456Z,78.67
2023-04-29T18:33:53.718Z,78.38
2023-04-29T18:36:11.058Z,78.34
2023-04-29T18:38:28.387Z,78.51
2023-04-29T18:40:46.735Z,79.41
2023-04-29T18:43:03.947Z,78.37
2023-04-29T18:45:21.577Z,80.10
2023-04-29T18:47:38.545Z,78.83
2023-04-29T18:49:55.990Z,79.06
2023-04-29T18:52:13.432Z,79.12
2023-04-29T18:54:30.669Z,79.42
2023-04-29T18:56:49.984Z,79.82
2023-04-29T18:59:07.293Z,79.83
2023-04-29T19:01:24.656Z,81.11
2023-04-29T19:03:42.303Z,80.99
2023-04-29T19:06:00.700Z,81.12
2023-04-29T19:08:18.042Z,82.10
2023-04-29T19:10:36.310Z,82.73
2023-04-29T19:12:53.638Z,82.16
2023-04-29T19:15:11.565Z,81.94
2023-04-29T19:17:28.842Z,81.86
2023-04-29T19:19:46.162Z,82.74
2023-04-29T19:22:03.771Z,82.85
2023-04-29T19:24:21.123Z,83.45
2023-04-29T19:26:40.290Z,82.97
2023-04-29T19:28:57.702Z,82.95
2023-04-29T19:31:14.986Z,83.76
2023-04-29T19:33:32.264Z,83.92
2023-04-29T19:35:49.594Z,82.95
2023-04-29T19:38:06.921Z,83.79
2023-04-29T19:40:24.557Z,83.99
2023-04-29T19:42:42.446Z,84.50
2023-04-29T19:44:59.588Z,84.21
2023-04-29T19:47:16.468Z,84.75
2023-04-29T19:49:33.408Z,85.17
2023-04-29T19:51:50.743Z,84.91
2023-04-29T19:54:08.093Z,84.76
2023-04-29T19:56:25.335Z,84.99
2023-04-29T19:58:42.667Z,84.75
2023-04-29T20:01:00.954Z,85.29
2023-04-29T20:03:18.333Z,85.02
2023-04-29T20:05:35.329Z,85.30
2023-04-29T20:07:52.285Z,85.84
2023-04-29T20:10:10.543Z,84.28
2023-04-29T20:12:27.779Z,84.84
2023-04-29T20:14:45.023Z,85.03
2023-04-29T20:17:02.430Z,85.35
2023-04-29T20:19:19.857Z,85.00
2023-04-29T20:21:37.170Z,85.19
2023-04-29T20:23:54.406Z,85.28
2023-04-29T20:26:11.748Z,85.52
2023-04-29T20:28:28.680Z,85.66
2023-04-29T20:30:45.659Z,86.04
2023-04-29T20:33:03.088Z,86.04
2023-04-29T20:35:23.787Z,86.09
2023-04-29T20:37:41.088Z,86.50
2023-04-29T20:39:59.372Z,86.48
2023-04-29T20:42:16.663Z,86.61
2023-04-29T20:44:33.962Z,86.48
2023-04-29T20:46:50.839Z,86.23
2023-04-29T20:49:08.137Z,86.18
2023-04-29T20:51:25.039Z,86.63
2023-04-29T20:53:41.971Z,86.74
2023-04-29T20:55:59.252Z,87.08
2023-04-29T20:58:16.654Z,86.94
2023-04-29T21:00:34.281Z,86.72
2023-04-29T21:02:51.606Z,86.79
2023-04-29T21:05:08.627Z,87.01
2023-04-29T21:07:26.006Z,87.31
2023-04-29T21:09:43.591Z,87.02
2023-04-29T21:12:01.565Z,86.95
2023-04-29T21:14:18.822Z,87.17
2023-04-29T21:16:36.088Z,86.52
2023-04-29T21:18:53.112Z,86.86
2023-04-29T21:21:10.119Z,86.76
2023-04-29T21:23:27.270Z,86.69
2023-04-29T21:25:44.986Z,87.16
2023-04-29T21:28:05.544Z,86.52
2023-04-29T21:30:25.353Z,86.85
2023-04-29T21:32:45.956Z,87.52
2023-04-29T21:35:04.498Z,87.72
2023-04-29T21:37:21.838Z,87.57
2023-04-29T21:39:41.518Z,88.55
2023-04-29T21:42:00.523Z,88.28
2023-04-29T21:44:17.891Z,88.54
2023-04-29T21:46:37.255Z,88.61
2023-04-29T21:48:55.752Z,88.45
2023-04-29T21:51:13.087Z,88.81
2023-04-29T21:53:30.420Z,89.10
2023-04-29T21:55:47.692Z,88.47
2023-04-29T21:58:04.947Z,88.83
2023-04-29T22:00:22.220Z,88.83
2023-04-29T22:02:39.176Z,88.88
2023-04-29T22:04:56.902Z,88.82
2023-04-29T22:07:17.385Z,89.13
2023-04-29T22:09:36.157Z,89.28
2023-04-29T22:11:53.273Z,89.29
2023-04-29T22:14:10.562Z,89.09
2023-04-29T22:16:27.645Z,88.96
2023-04-29T22:18:45.015Z,88.78
2023-04-29T22:21:03.379Z,88.54
2023-04-29T22:23:20.482Z,89.04
2023-04-29T22:25:39.318Z,89.27
2023-04-29T22:27:56.568Z,89.03
2023-04-29T22:30:13.596Z,88.72
2023-04-29T22:32:31.947Z,88.98
2023-04-29T22:34:49.691Z,88.99
2023-04-29T22:37:07.001Z,88.94
2023-04-29T22:39:23.857Z,89.51
2023-04-29T22:41:41.111Z,89.82
2023-04-29T22:43:58.339Z,89.97
2023-04-29T22:46:15.692Z,89.71
2023-04-29T22:48:33.310Z,89.77
2023-04-29T22:50:51.609Z,89.64
2023-04-29T22:53:08.838Z,90.24
2023-04-29T22:55:25.808Z,90.00
2023-04-29T22:57:43.086Z,89.95
2023-04-29T23:00:00.755Z,90.22
2023-04-29T23:02:17.930Z,89.81
2023-04-29T23:04:35.710Z,90.40
2023-04-29T23:06:54.559Z,90.66
2023-04-29T23:09:11.894Z,90.56
2023-04-29T23:11:29.245Z,91.53
2023-04-29T23:13:47.419Z,90.61
2023-04-29T23:16:04.796Z,90.24
2023-04-29T23:18:22.135Z,90.60
2023-04-29T23:20:39.448Z,90.35
2023-04-29T23:22:56.703Z,90.44
2023-04-29T23:25:13.707Z,90.30
2023-04-29T23:27:30.977Z,90.71
2023-04-29T23:29:48.184Z,90.75
2023-04-29T23:32:05.500Z,89.97
2023-04-29T23:34:24.113Z,90.14
2023-04-29T23:36:41.375Z,90.57
2023-04-29T23:38:58.694Z,90.78
2023-04-29T23:41:16.068Z,91.55
2023-04-29T23:43:33.769Z,91.40
2023-04-29T23:48:22.759Z,91.65
2023-04-29T23:50:39.779Z,91.44
2023-04-29T23:52:57.139Z,90.87
2023-04-29T23:55:14.455Z,90.99
2023-04-29T23:57:31.411Z,91.20
2023-04-29T23:59:48.834Z,91.54
